sensor_id;sensor_type;location;lat;lon;timestamp;P1;durP1;ratioP1;P2;durP2;ratioP2
25155;SDS011;21913;52.456;13.634;2022-10-01T00:04:34;2.72;;;1.00;;
25155;SDS011;21913;52.456;13.634;2022-10-01T00:09:36;1.90;;;1.10;;
25155;SDS011;21913;52.456;13.634;2022-10-01T00:14:37;1.92;;;1.20;;
25155;SDS011;21913;52.456;13.634;2022-10-01T00:19:39;2.28;;;1.00;;
25155;SDS011;21913;52.456;13.634;2022-10-01T00:24:40;1.70;;;1.10;;
25155;SDS011;21913;52.456;13.634;2022-10-01T00:29:42;1.73;;;0.98;;
25155;SDS011;21913;52.456;13.634;2022-10-01T00:34:43;2.15;;;1.00;;
25155;SDS011;21913;52.456;13.634;2022-10-01T00:39:45;1.80;;;0.90;;
25155;SDS011;21913;52.456;13.634;2022-10-01T00:44:46;2.15;;;1.10;;
25155;SDS011;21913;52.456;13.634;2022-10-01T00:49:48;1.42;;;0.90;;
25155;SDS011;21913;52.456;13.634;2022-10-01T00:55:00;1.63;;;0.80;;
25155;SDS011;21913;52.456;13.634;2022-10-01T01:00:07;1.25;;;0.90;;
25155;SDS011;21913;52.456;13.634;2022-10-01T01:05:10;2.38;;;1.10;;
25155;SDS011;21913;52.456;13.634;2022-10-01T01:10:12;1.40;;;0.90;;
25155;SDS011;21913;52.456;13.634;2022-10-01T01:15:26;1.90;;;1.00;;
25155;SDS011;21913;52.456;13.634;2022-10-01T01:31:06;1.60;;;0.80;;
25155;SDS011;21913;52.456;13.634;2022-10-01T01:36:12;1.40;;;0.90;;
25155;SDS011;21913;52.456;13.634;2022-10-01T01:41:18;2.97;;;1.00;;
25155;SDS011;21913;52.456;13.634;2022-10-01T01:46:20;2.10;;;1.05;;
25155;SDS011;21913;52.456;13.634;2022-10-01T01:51:33;1.30;;;0.80;;
25155;SDS011;21913;52.456;13.634;2022-10-01T01:56:41;1.65;;;1.10;;
25155;SDS011;21913;52.456;13.634;2022-10-01T02:01:43;1.50;;;0.90;;
25155;SDS011;21913;52.456;13.634;2022-10-01T02:23:11;1.27;;;0.85;;
25155;SDS011;21913;52.456;13.634;2022-10-01T02:28:17;1.27;;;1.00;;
25155;SDS011;21913;52.456;13.634;2022-10-01T02:33:23;1.40;;;0.93;;
25155;SDS011;21913;52.456;13.634;2022-10-01T02:38:31;1.40;;;0.82;;
25155;SDS011;21913;52.456;13.634;2022-10-01T02:43:36;1.70;;;0.98;;
25155;SDS011;21913;52.456;13.634;2022-10-01T02:48:43;1.35;;;0.90;;
25155;SDS011;21913;52.456;13.634;2022-10-01T02:53:45;1.20;;;0.90;;
25155;SDS011;21913;52.456;13.634;2022-10-01T02:58:49;1.45;;;0.90;;
25155;SDS011;21913;52.456;13.634;2022-10-01T03:03:51;1.08;;;0.70;;
25155;SDS011;21913;52.456;13.634;2022-10-01T03:08:52;1.65;;;0.85;;
25155;SDS011;21913;52.456;13.634;2022-10-01T03:13:54;1.73;;;1.00;;
25155;SDS011;21913;52.456;13.634;2022-10-01T03:18:55;2.13;;;1.00;;
25155;SDS011;21913;52.456;13.634;2022-10-01T03:23:56;1.25;;;0.80;;
25155;SDS011;21913;52.456;13.634;2022-10-01T03:28:58;1.67;;;0.80;;
25155;SDS011;21913;52.456;13.634;2022-10-01T03:33:59;1.17;;;0.80;;
25155;SDS011;21913;52.456;13.634;2022-10-01T03:39:01;2.13;;;1.08;;
25155;SDS011;21913;52.456;13.634;2022-10-01T03:44:03;1.35;;;0.70;;
25155;SDS011;21913;52.456;13.634;2022-10-01T03:49:04;1.92;;;1.00;;
25155;SDS011;21913;52.456;13.634;2022-10-01T03:54:06;1.25;;;0.93;;
25155;SDS011;21913;52.456;13.634;2022-10-01T03:59:09;1.45;;;0.90;;
25155;SDS011;21913;52.456;13.634;2022-10-01T04:04:11;1.30;;;0.90;;
25155;SDS011;21913;52.456;13.634;2022-10-01T04:09:12;2.88;;;0.93;;
25155;SDS011;21913;52.456;13.634;2022-10-01T04:14:13;1.63;;;0.75;;
25155;SDS011;21913;52.456;13.634;2022-10-01T04:19:15;1.70;;;1.05;;
25155;SDS011;21913;52.456;13.634;2022-10-01T04:24:16;1.40;;;0.80;;
25155;SDS011;21913;52.456;13.634;2022-10-01T04:29:18;0.80;;;0.70;;
25155;SDS011;21913;52.456;13.634;2022-10-01T04:34:19;1.25;;;0.95;;
25155;SDS011;21913;52.456;13.634;2022-10-01T04:39:21;2.15;;;0.90;;
25155;SDS011;21913;52.456;13.634;2022-10-01T04:44:22;1.17;;;0.80;;
25155;SDS011;21913;52.456;13.634;2022-10-01T04:49:24;1.20;;;0.80;;
25155;SDS011;21913;52.456;13.634;2022-10-01T04:54:25;1.20;;;0.77;;
25155;SDS011;21913;52.456;13.634;2022-10-01T04:59:26;1.83;;;0.82;;
25155;SDS011;21913;52.456;13.634;2022-10-01T05:04:28;0.90;;;0.70;;
25155;SDS011;21913;52.456;13.634;2022-10-01T05:09:29;1.38;;;0.70;;
25155;SDS011;21913;52.456;13.634;2022-10-01T05:14:31;1.15;;;0.88;;
25155;SDS011;21913;52.456;13.634;2022-10-01T05:19:32;1.20;;;0.77;;
25155;SDS011;21913;52.456;13.634;2022-10-01T05:24:34;1.30;;;0.63;;
25155;SDS011;21913;52.456;13.634;2022-10-01T05:29:35;1.52;;;0.80;;
25155;SDS011;21913;52.456;13.634;2022-10-01T05:34:37;1.30;;;0.88;;
25155;SDS011;21913;52.456;13.634;2022-10-01T05:39:39;1.85;;;0.93;;
25155;SDS011;21913;52.456;13.634;2022-10-01T05:44:40;0.90;;;0.60;;
25155;SDS011;21913;52.456;13.634;2022-10-01T05:49:42;0.88;;;0.50;;
25155;SDS011;21913;52.456;13.634;2022-10-01T05:54:44;2.38;;;0.80;;
25155;SDS011;21913;52.456;13.634;2022-10-01T05:59:45;1.50;;;0.80;;
25155;SDS011;21913;52.456;13.634;2022-10-01T06:04:47;0.60;;;0.57;;
25155;SDS011;21913;52.456;13.634;2022-10-01T06:09:48;1.20;;;0.80;;
25155;SDS011;21913;52.456;13.634;2022-10-01T06:14:49;0.90;;;0.60;;
25155;SDS011;21913;52.456;13.634;2022-10-01T06:19:51;1.67;;;0.90;;
25155;SDS011;21913;52.456;13.634;2022-10-01T06:24:52;1.05;;;0.70;;
25155;SDS011;21913;52.456;13.634;2022-10-01T06:29:56;1.00;;;0.60;;
25155;SDS011;21913;52.456;13.634;2022-10-01T06:34:58;1.60;;;0.80;;
25155;SDS011;21913;52.456;13.634;2022-10-01T06:39:59;1.75;;;0.70;;
25155;SDS011;21913;52.456;13.634;2022-10-01T06:45:01;1.08;;;0.70;;
25155;SDS011;21913;52.456;13.634;2022-10-01T06:50:03;1.10;;;0.70;;
25155;SDS011;21913;52.456;13.634;2022-10-01T06:55:04;0.88;;;0.60;;
25155;SDS011;21913;52.456;13.634;2022-10-01T07:00:06;1.00;;;0.60;;
25155;SDS011;21913;52.456;13.634;2022-10-01T07:05:08;1.15;;;0.70;;
25155;SDS011;21913;52.456;13.634;2022-10-01T07:10:10;1.70;;;0.60;;
25155;SDS011;21913;52.456;13.634;2022-10-01T07:15:12;0.95;;;0.63;;
25155;SDS011;21913;52.456;13.634;2022-10-01T07:20:13;1.25;;;0.70;;
25155;SDS011;21913;52.456;13.634;2022-10-01T07:25:15;1.10;;;0.60;;
25155;SDS011;21913;52.456;13.634;2022-10-01T07:30:17;1.58;;;0.80;;
25155;SDS011;21913;52.456;13.634;2022-10-01T07:35:18;0.80;;;0.55;;
25155;SDS011;21913;52.456;13.634;2022-10-01T07:40:20;1.13;;;0.63;;
25155;SDS011;21913;52.456;13.634;2022-10-01T07:45:22;1.13;;;0.55;;
25155;SDS011;21913;52.456;13.634;2022-10-01T07:50:24;0.70;;;0.60;;
25155;SDS011;21913;52.456;13.634;2022-10-01T07:55:27;0.68;;;0.50;;
25155;SDS011;21913;52.456;13.634;2022-10-01T08:00:29;1.15;;;0.70;;
25155;SDS011;21913;52.456;13.634;2022-10-01T08:05:33;1.27;;;0.70;;
25155;SDS011;21913;52.456;13.634;2022-10-01T08:10:36;0.80;;;0.50;;
25155;SDS011;21913;52.456;13.634;2022-10-01T08:15:46;0.70;;;0.40;;
25155;SDS011;21913;52.456;13.634;2022-10-01T08:20:48;0.75;;;0.50;;
25155;SDS011;21913;52.456;13.634;2022-10-01T08:25:51;0.93;;;0.40;;
25155;SDS011;21913;52.456;13.634;2022-10-01T08:30:52;1.02;;;0.50;;
25155;SDS011;21913;52.456;13.634;2022-10-01T08:35:54;1.38;;;0.55;;
25155;SDS011;21913;52.456;13.634;2022-10-01T08:40:55;0.90;;;0.40;;
25155;SDS011;21913;52.456;13.634;2022-10-01T08:46:04;0.93;;;0.50;;
25155;SDS011;21913;52.456;13.634;2022-10-01T08:51:22;0.82;;;0.50;;
25155;SDS011;21913;52.456;13.634;2022-10-01T08:56:32;0.93;;;0.40;;
25155;SDS011;21913;52.456;13.634;2022-10-01T09:01:37;0.60;;;0.40;;
25155;SDS011;21913;52.456;13.634;2022-10-01T09:06:38;0.88;;;0.50;;
25155;SDS011;21913;52.456;13.634;2022-10-01T09:21:55;0.40;;;0.30;;
25155;SDS011;21913;52.456;13.634;2022-10-01T09:26:58;0.95;;;0.50;;
25155;SDS011;21913;52.456;13.634;2022-10-01T09:32:01;0.80;;;0.40;;
25155;SDS011;21913;52.456;13.634;2022-10-01T09:42:28;0.93;;;0.55;;
25155;SDS011;21913;52.456;13.634;2022-10-01T09:47:30;2.65;;;0.50;;
25155;SDS011;21913;52.456;13.634;2022-10-01T09:52:34;0.40;;;0.38;;
25155;SDS011;21913;52.456;13.634;2022-10-01T10:02:43;0.90;;;0.50;;
25155;SDS011;21913;52.456;13.634;2022-10-01T10:07:53;1.35;;;0.60;;
25155;SDS011;21913;52.456;13.634;2022-10-01T10:12:56;0.75;;;0.50;;
25155;SDS011;21913;52.456;13.634;2022-10-01T10:18:05;1.42;;;0.47;;
25155;SDS011;21913;52.456;13.634;2022-10-01T10:23:19;0.63;;;0.43;;
25155;SDS011;21913;52.456;13.634;2022-10-01T10:28:22;0.50;;;0.30;;
25155;SDS011;21913;52.456;13.634;2022-10-01T10:33:24;0.88;;;0.55;;
25155;SDS011;21913;52.456;13.634;2022-10-01T10:38:28;2.00;;;0.60;;
25155;SDS011;21913;52.456;13.634;2022-10-01T10:43:33;0.75;;;0.57;;
25155;SDS011;21913;52.456;13.634;2022-10-01T10:48:40;0.52;;;0.40;;
25155;SDS011;21913;52.456;13.634;2022-10-01T10:53:44;0.82;;;0.50;;
25155;SDS011;21913;52.456;13.634;2022-10-01T10:58:46;1.60;;;0.60;;
25155;SDS011;21913;52.456;13.634;2022-10-01T11:03:48;1.48;;;0.50;;
25155;SDS011;21913;52.456;13.634;2022-10-01T11:08:57;3.13;;;0.80;;
25155;SDS011;21913;52.456;13.634;2022-10-01T11:14:16;1.73;;;0.60;;
25155;SDS011;21913;52.456;13.634;2022-10-01T11:19:41;2.00;;;0.88;;
25155;SDS011;21913;52.456;13.634;2022-10-01T11:35:23;1.85;;;0.55;;
25155;SDS011;21913;52.456;13.634;2022-10-01T11:40:39;2.37;;;0.70;;
25155;SDS011;21913;52.456;13.634;2022-10-01T11:45:44;1.67;;;0.70;;
25155;SDS011;21913;52.456;13.634;2022-10-01T11:50:49;1.23;;;0.50;;
25155;SDS011;21913;52.456;13.634;2022-10-01T11:56:29;2.55;;;0.68;;
25155;SDS011;21913;52.456;13.634;2022-10-01T12:01:29;0.82;;;0.52;;
25155;SDS011;21913;52.456;13.634;2022-10-01T12:06:34;1.30;;;0.70;;
25155;SDS011;21913;52.456;13.634;2022-10-01T12:11:45;1.20;;;0.60;;
25155;SDS011;21913;52.456;13.634;2022-10-01T12:16:53;1.17;;;0.70;;
25155;SDS011;21913;52.456;13.634;2022-10-01T12:22:00;1.02;;;0.60;;
25155;SDS011;21913;52.456;13.634;2022-10-01T12:48:30;2.97;;;0.68;;
25155;SDS011;21913;52.456;13.634;2022-10-01T12:58:56;1.10;;;0.60;;
25155;SDS011;21913;52.456;13.634;2022-10-01T13:14:23;1.75;;;0.75;;
25155;SDS011;21913;52.456;13.634;2022-10-01T13:30:16;1.08;;;0.68;;
25155;SDS011;21913;52.456;13.634;2022-10-01T13:35:28;1.10;;;0.70;;
25155;SDS011;21913;52.456;13.634;2022-10-01T13:40:33;1.67;;;0.75;;
25155;SDS011;21913;52.456;13.634;2022-10-01T13:45:40;1.23;;;0.80;;
25155;SDS011;21913;52.456;13.634;2022-10-01T13:56:13;1.30;;;0.70;;
25155;SDS011;21913;52.456;13.634;2022-10-01T14:01:35;0.80;;;0.60;;
25155;SDS011;21913;52.456;13.634;2022-10-01T14:06:49;1.30;;;0.70;;
25155;SDS011;21913;52.456;13.634;2022-10-01T14:11:56;2.25;;;0.70;;
25155;SDS011;21913;52.456;13.634;2022-10-01T14:17:08;0.95;;;0.70;;
25155;SDS011;21913;52.456;13.634;2022-10-01T14:38:22;2.88;;;1.00;;
25155;SDS011;21913;52.456;13.634;2022-10-01T14:43:26;4.43;;;1.05;;
25155;SDS011;21913;52.456;13.634;2022-10-01T14:48:30;1.73;;;0.73;;
25155;SDS011;21913;52.456;13.634;2022-10-01T14:53:35;5.00;;;0.98;;
25155;SDS011;21913;52.456;13.634;2022-10-01T14:58:39;1.13;;;0.70;;
25155;SDS011;21913;52.456;13.634;2022-10-01T15:03:44;2.15;;;0.90;;
25155;SDS011;21913;52.456;13.634;2022-10-01T15:08:50;2.88;;;0.90;;
25155;SDS011;21913;52.456;13.634;2022-10-01T15:13:54;2.65;;;0.75;;
25155;SDS011;21913;52.456;13.634;2022-10-01T15:19:02;1.92;;;0.88;;
25155;SDS011;21913;52.456;13.634;2022-10-01T15:24:13;2.45;;;0.82;;
25155;SDS011;21913;52.456;13.634;2022-10-01T15:29:56;3.28;;;1.08;;
25155;SDS011;21913;52.456;13.634;2022-10-01T15:34:58;3.35;;;0.85;;
25155;SDS011;21913;52.456;13.634;2022-10-01T15:40:05;3.42;;;1.08;;
25155;SDS011;21913;52.456;13.634;2022-10-01T15:45:21;2.03;;;0.80;;
25155;SDS011;21913;52.456;13.634;2022-10-01T15:50:26;2.65;;;0.90;;
25155;SDS011;21913;52.456;13.634;2022-10-01T15:55:34;3.58;;;0.90;;
25155;SDS011;21913;52.456;13.634;2022-10-01T16:05:47;2.67;;;0.80;;
25155;SDS011;21913;52.456;13.634;2022-10-01T16:16:31;3.00;;;0.65;;
25155;SDS011;21913;52.456;13.634;2022-10-01T16:21:38;2.38;;;0.88;;
25155;SDS011;21913;52.456;13.634;2022-10-01T16:26:40;2.40;;;0.80;;
25155;SDS011;21913;52.456;13.634;2022-10-01T16:31:43;4.18;;;0.90;;
25155;SDS011;21913;52.456;13.634;2022-10-01T16:36:46;1.30;;;0.70;;
25155;SDS011;21913;52.456;13.634;2022-10-01T16:41:47;4.43;;;0.82;;
25155;SDS011;21913;52.456;13.634;2022-10-01T16:46:57;1.13;;;0.70;;
25155;SDS011;21913;52.456;13.634;2022-10-01T16:51:58;1.67;;;0.75;;
25155;SDS011;21913;52.456;13.634;2022-10-01T16:56:59;1.40;;;0.70;;
25155;SDS011;21913;52.456;13.634;2022-10-01T17:02:01;3.78;;;1.17;;
25155;SDS011;21913;52.456;13.634;2022-10-01T17:07:02;3.35;;;0.95;;
25155;SDS011;21913;52.456;13.634;2022-10-01T17:12:04;1.05;;;0.70;;
25155;SDS011;21913;52.456;13.634;2022-10-01T17:17:05;1.70;;;0.80;;
25155;SDS011;21913;52.456;13.634;2022-10-01T17:22:07;2.53;;;0.98;;
25155;SDS011;21913;52.456;13.634;2022-10-01T17:27:08;2.78;;;0.95;;
25155;SDS011;21913;52.456;13.634;2022-10-01T17:32:10;1.77;;;0.80;;
25155;SDS011;21913;52.456;13.634;2022-10-01T17:37:11;1.88;;;0.80;;
25155;SDS011;21913;52.456;13.634;2022-10-01T17:42:13;2.30;;;1.00;;
25155;SDS011;21913;52.456;13.634;2022-10-01T17:47:14;1.60;;;0.68;;
25155;SDS011;21913;52.456;13.634;2022-10-01T17:52:16;2.15;;;0.80;;
25155;SDS011;21913;52.456;13.634;2022-10-01T17:57:18;1.85;;;0.80;;
25155;SDS011;21913;52.456;13.634;2022-10-01T18:02:19;3.63;;;0.75;;
25155;SDS011;21913;52.456;13.634;2022-10-01T18:07:40;1.95;;;0.80;;
25155;SDS011;21913;52.456;13.634;2022-10-01T18:12:42;1.33;;;0.63;;
25155;SDS011;21913;52.456;13.634;2022-10-01T18:17:44;1.60;;;0.70;;
25155;SDS011;21913;52.456;13.634;2022-10-01T18:22:51;2.15;;;0.90;;
25155;SDS011;21913;52.456;13.634;2022-10-01T18:27:53;2.20;;;0.82;;
25155;SDS011;21913;52.456;13.634;2022-10-01T18:32:54;1.85;;;0.70;;
25155;SDS011;21913;52.456;13.634;2022-10-01T18:38:39;2.22;;;0.70;;
25155;SDS011;21913;52.456;13.634;2022-10-01T18:43:24;2.22;;;0.80;;
25155;SDS011;21913;52.456;13.634;2022-10-01T18:48:33;3.17;;;1.00;;
25155;SDS011;21913;52.456;13.634;2022-10-01T19:05:05;1.83;;;0.77;;
25155;SDS011;21913;52.456;13.634;2022-10-01T19:26:23;2.10;;;0.90;;
25155;SDS011;21913;52.456;13.634;2022-10-01T19:36:39;1.80;;;0.90;;
25155;SDS011;21913;52.456;13.634;2022-10-01T19:41:48;2.67;;;1.08;;
25155;SDS011;21913;52.456;13.634;2022-10-01T19:46:56;2.65;;;1.10;;
25155;SDS011;21913;52.456;13.634;2022-10-01T19:52:13;2.42;;;0.77;;
25155;SDS011;21913;52.456;13.634;2022-10-01T19:57:26;2.05;;;1.00;;
25155;SDS011;21913;52.456;13.634;2022-10-01T20:02:33;1.58;;;0.90;;
25155;SDS011;21913;52.456;13.634;2022-10-01T20:23:51;1.90;;;1.00;;
25155;SDS011;21913;52.456;13.634;2022-10-01T20:34:17;1.98;;;1.00;;
25155;SDS011;21913;52.456;13.634;2022-10-01T20:39:37;3.08;;;1.10;;
25155;SDS011;21913;52.456;13.634;2022-10-01T20:44:41;2.67;;;1.13;;
25155;SDS011;21913;52.456;13.634;2022-10-01T20:54:52;2.60;;;1.08;;
25155;SDS011;21913;52.456;13.634;2022-10-01T21:00:06;1.77;;;1.10;;
25155;SDS011;21913;52.456;13.634;2022-10-01T21:05:18;2.47;;;1.25;;
25155;SDS011;21913;52.456;13.634;2022-10-01T21:21:18;2.17;;;1.10;;
25155;SDS011;21913;52.456;13.634;2022-10-01T21:26:36;2.97;;;1.10;;
25155;SDS011;21913;52.456;13.634;2022-10-01T21:42:41;2.55;;;1.13;;
25155;SDS011;21913;52.456;13.634;2022-10-01T22:14:50;2.63;;;1.02;;
25155;SDS011;21913;52.456;13.634;2022-10-01T22:19:55;2.33;;;1.20;;
25155;SDS011;21913;52.456;13.634;2022-10-01T22:24:59;3.15;;;1.20;;
25155;SDS011;21913;52.456;13.634;2022-10-01T22:35:08;2.90;;;1.30;;
25155;SDS011;21913;52.456;13.634;2022-10-01T22:40:22;2.50;;;1.10;;
25155;SDS011;21913;52.456;13.634;2022-10-01T22:45:30;3.45;;;1.30;;
25155;SDS011;21913;52.456;13.634;2022-10-01T22:55:57;3.78;;;1.30;;
25155;SDS011;21913;52.456;13.634;2022-10-01T23:16:29;3.80;;;1.20;;
25155;SDS011;21913;52.456;13.634;2022-10-01T23:32:21;2.70;;;1.33;;
25155;SDS011;21913;52.456;13.634;2022-10-01T23:42:41;2.72;;;1.20;;
25155;SDS011;21913;52.456;13.634;2022-10-01T23:53:03;2.67;;;1.25;;
25155;SDS011;21913;52.456;13.634;2022-10-01T23:58:13;1.42;;;0.90;;
